Time;durP1;ratioP1;P1;durP2;ratioP2;P2;SDS_P1;SDS_P2;PMS_P1;PMS_P2;Temp;Humidity;BMP_temperature;BMP_pressure;BME280_temperature;BME280_humidity;BME280_pressure;Samples;Min_cycle;Max_cycle;Signal;HPM_P1;HPM_P2
2022/05/15 00:02:23;;;;;;;2.63;1.40;;;24.90;47.20;;;;;;5020142;28;20501;-67
2022/05/15 00:04:49;;;;;;;2.75;1.30;;;24.90;47.20;;;;;;5017844;28;20029;-67
2022/05/15 00:07:15;;;;;;;2.50;1.30;;;24.80;47.10;;;;;;5019885;28;20032;-67
2022/05/15 00:09:41;;;;;;;2.22;1.10;;;24.80;47.10;;;;;;5019837;28;20037;-63
2022/05/15 00:12:07;;;;;;;2.08;1.17;;;24.80;47.10;;;;;;5020792;28;20055;-64
2022/05/15 00:14:34;;;;;;;2.53;1.20;;;24.80;47.10;;;;;;5022529;28;20065;-64
2022/05/15 00:17:00;;;;;;;1.92;1.10;;;24.80;47.10;;;;;;5020945;28;20040;-66
2022/05/15 00:19:27;;;;;;;2.97;1.10;;;24.80;47.10;;;;;;5018525;28;20032;-65
2022/05/15 00:21:52;;;;;;;2.22;1.30;;;24.80;47.10;;;;;;5019552;28;20039;-65
2022/05/15 00:24:19;;;;;;;2.67;1.27;;;24.80;47.10;;;;;;5020087;28;20025;-64
2022/05/15 00:26:45;;;;;;;1.48;1.10;;;24.80;47.10;;;;;;5021274;28;20043;-64
2022/05/15 00:29:10;;;;;;;2.00;1.20;;;24.80;47.10;;;;;;5020942;28;20124;-66
2022/05/15 00:31:36;;;;;;;2.38;1.27;;;24.80;47.10;;;;;;5020364;28;20042;-63
2022/05/15 00:34:02;;;;;;;2.17;1.20;;;24.80;47.10;;;;;;5019084;28;20025;-62
2022/05/15 00:36:28;;;;;;;2.00;1.10;;;24.80;47.10;;;;;;5021163;28;20058;-63
2022/05/15 00:38:54;;;;;;;1.60;1.10;;;24.80;47.10;;;;;;5021992;28;20449;-64
2022/05/15 00:41:19;;;;;;;2.53;1.30;;;24.80;47.10;;;;;;5018959;28;20560;-62
2022/05/15 00:43:49;;;;;;;1.80;1.10;;;24.80;47.10;;;;;;5022410;28;20033;-64
2022/05/15 00:46:30;;;;;;;1.75;1.02;;;24.80;47.10;;;;;;5020388;28;20061;-65
2022/05/15 00:48:58;;;;;;;1.52;1.00;;;24.80;47.10;;;;;;5019660;28;20030;-62
2022/05/15 00:51:51;;;;;;;1.67;1.00;;;24.80;47.10;;;;;;5021266;28;20025;-64
2022/05/15 00:54:49;;;;;;;1.90;1.08;;;24.80;47.10;;;;;;5001807;28;20033;-65
2022/05/15 00:57:30;;;;;;;1.88;1.20;;;24.80;47.10;;;;;;5012118;28;21021;-65
2022/05/15 01:00:06;;;;;;;1.33;0.98;;;24.80;47.10;;;;;;5018986;28;20029;-65
2022/05/15 01:02:38;;;;;;;2.00;1.10;;;24.80;47.10;;;;;;5019621;28;20337;-66
2022/05/15 01:05:05;;;;;;;3.22;1.02;;;24.80;47.10;;;;;;5019221;28;20041;-65
2022/05/15 01:07:30;;;;;;;1.58;1.00;;;24.70;47.00;;;;;;5019292;28;20116;-62
2022/05/15 01:09:58;;;;;;;1.98;1.02;;;24.70;47.10;;;;;;5001018;28;20171;-63
2022/05/15 01:12:24;;;;;;;2.47;1.20;;;24.70;47.10;;;;;;5003467;28;20098;-62
2022/05/15 01:14:50;;;;;;;2.25;1.40;;;24.70;47.00;;;;;;5018188;28;20057;-62
2022/05/15 01:17:16;;;;;;;2.55;1.20;;;24.70;47.00;;;;;;5020738;28;20033;-66
2022/05/15 01:19:43;;;;;;;1.95;1.20;;;24.70;47.10;;;;;;5017628;28;20477;-65
2022/05/15 01:22:11;;;;;;;1.63;1.05;;;24.70;47.10;;;;;;5019037;28;20021;-64
2022/05/15 01:24:37;;;;;;;1.75;1.10;;;24.70;47.10;;;;;;5019109;28;20509;-64
2022/05/15 01:27:10;;;;;;;1.98;1.02;;;24.70;47.10;;;;;;5019665;28;20120;-64
2022/05/15 01:29:42;;;;;;;1.80;1.20;;;24.70;47.10;;;;;;5022771;28;20068;-65
2022/05/15 01:32:09;;;;;;;1.67;1.10;;;24.70;47.60;;;;;;5020125;28;20842;-64
2022/05/15 01:34:34;;;;;;;1.77;1.00;;;24.70;47.10;;;;;;5019348;28;20335;-63
2022/05/15 01:37:00;;;;;;;2.33;1.10;;;24.70;47.10;;;;;;5020146;28;20101;-63
2022/05/15 01:39:30;;;;;;;1.83;1.10;;;24.60;47.00;;;;;;5020271;28;20057;-64
2022/05/15 01:41:57;;;;;;;2.28;1.20;;;24.60;47.10;;;;;;5018775;28;20112;-64
2022/05/15 01:44:22;;;;;;;1.45;1.00;;;24.60;47.00;;;;;;5020567;28;20394;-64
2022/05/15 01:46:51;;;;;;;1.95;1.00;;;24.60;47.10;;;;;;5021205;28;20116;-63
2022/05/15 01:49:17;;;;;;;1.83;1.20;;;24.60;47.10;;;;;;5015886;28;20025;-65
2022/05/15 01:51:44;;;;;;;1.38;1.00;;;24.60;47.10;;;;;;5020330;28;20039;-64
2022/05/15 01:54:10;;;;;;;1.40;0.90;;;24.60;47.10;;;;;;5019386;28;20033;-62
2022/05/15 01:56:36;;;;;;;1.30;1.00;;;24.60;47.10;;;;;;5021034;28;20207;-62
2022/05/15 01:59:04;;;;;;;2.53;1.38;;;24.60;47.10;;;;;;5018902;28;20422;-65
2022/05/15 02:01:30;;;;;;;1.70;0.95;;;24.60;47.10;;;;;;5017914;28;20046;-65
2022/05/15 02:03:55;;;;;;;1.65;1.00;;;24.60;47.10;;;;;;5021095;28;20091;-64
2022/05/15 02:06:21;;;;;;;2.03;1.10;;;24.60;47.10;;;;;;5020416;28;20071;-65
2022/05/15 02:08:48;;;;;;;1.80;1.08;;;24.60;47.10;;;;;;5018800;28;21225;-63
2022/05/15 02:11:14;;;;;;;1.58;1.00;;;24.50;47.10;;;;;;5020106;28;20029;-62
2022/05/15 02:13:39;;;;;;;1.83;1.00;;;24.50;47.10;;;;;;5019003;28;20192;-65
2022/05/15 02:16:06;;;;;;;1.23;0.90;;;24.50;47.10;;;;;;5021380;28;20506;-66
2022/05/15 02:18:31;;;;;;;1.30;0.98;;;24.50;47.10;;;;;;5019795;28;20078;-64
2022/05/15 02:20:57;;;;;;;2.75;1.00;;;24.50;47.10;;;;;;5021250;28;20489;-65
2022/05/15 02:23:23;;;;;;;1.73;1.05;;;24.50;47.10;;;;;;5024819;28;20025;-66
2022/05/15 02:25:49;;;;;;;1.80;1.10;;;24.50;47.10;;;;;;5022725;28;20036;-66
2022/05/15 02:28:15;;;;;;;1.20;0.90;;;24.50;47.10;;;;;;5023968;28;20037;-65
2022/05/15 02:30:41;;;;;;;1.58;1.00;;;24.50;47.60;;;;;;5023420;28;20041;-66
2022/05/15 02:33:06;;;;;;;1.58;1.00;;;24.50;47.10;;;;;;5026056;28;20036;-62
2022/05/15 02:35:32;;;;;;;1.98;1.15;;;24.50;47.10;;;;;;5022031;28;20025;-65
2022/05/15 02:37:58;;;;;;;1.90;1.10;;;24.50;47.10;;;;;;5025739;28;20544;-64
2022/05/15 02:40:25;;;;;;;2.28;1.40;;;24.50;47.10;;;;;;5022823;28;21377;-62
2022/05/15 02:42:53;;;;;;;1.63;1.00;;;24.50;47.10;;;;;;5023450;28;20030;-65
2022/05/15 02:45:19;;;;;;;1.35;0.90;;;24.50;47.10;;;;;;5022920;28;20044;-65
2022/05/15 02:47:45;;;;;;;1.50;0.90;;;24.40;47.10;;;;;;5022250;28;20056;-64
2022/05/15 02:52:55;;;;;;;1.40;0.90;;;24.40;47.10;;;;;;5023176;28;20487;-65
2022/05/15 02:55:23;;;;;;;1.20;0.90;;;24.40;47.10;;;;;;5021783;28;20119;-66
2022/05/15 02:57:50;;;;;;;1.35;0.90;;;24.40;47.10;;;;;;5022375;28;20037;-65
2022/05/15 03:00:17;;;;;;;1.75;1.08;;;24.40;47.10;;;;;;5024258;28;20040;-64
2022/05/15 03:02:43;;;;;;;1.13;0.80;;;24.40;47.10;;;;;;5025121;28;20045;-65
2022/05/15 03:05:12;;;;;;;1.40;1.00;;;24.40;47.10;;;;;;5022095;28;20823;-65
2022/05/15 03:07:38;;;;;;;1.63;1.00;;;24.40;47.10;;;;;;5021996;28;20055;-66
2022/05/15 03:10:05;;;;;;;1.48;0.80;;;24.40;47.10;;;;;;5021900;28;20033;-62
2022/05/15 03:12:31;;;;;;;1.15;0.88;;;24.40;47.10;;;;;;5024717;28;20028;-66
2022/05/15 03:14:57;;;;;;;1.60;1.08;;;24.40;47.10;;;;;;5022243;28;20031;-64
2022/05/15 03:17:22;;;;;;;1.70;1.00;;;24.40;47.10;;;;;;5021193;28;20330;-66
2022/05/15 03:19:48;;;;;;;1.52;1.00;;;24.40;47.10;;;;;;5022310;28;20754;-66
2022/05/15 03:22:14;;;;;;;1.33;0.90;;;24.40;47.10;;;;;;5023313;28;20033;-66
2022/05/15 03:24:39;;;;;;;1.48;1.00;;;24.40;47.10;;;;;;5022437;28;20032;-66
2022/05/15 03:27:05;;;;;;;1.10;0.90;;;24.30;47.00;;;;;;5020749;28;20041;-66
2022/05/15 03:29:31;;;;;;;1.70;1.10;;;24.40;47.10;;;;;;5025756;28;20024;-62
2022/05/15 03:31:57;;;;;;;1.90;1.10;;;24.30;47.00;;;;;;5004319;28;20038;-65
2022/05/15 03:34:23;;;;;;;0.93;0.80;;;24.30;47.00;;;;;;5020778;28;20049;-62
2022/05/15 03:36:51;;;;;;;1.40;0.90;;;24.30;47.00;;;;;;5020807;28;20040;-64
2022/05/15 03:39:21;;;;;;;1.30;0.90;;;24.30;47.00;;;;;;5020085;28;20031;-64
2022/05/15 03:41:48;;;;;;;1.38;0.95;;;24.30;47.10;;;;;;5028341;28;20399;-64
2022/05/15 03:44:14;;;;;;;1.35;0.80;;;24.30;47.10;;;;;;5023324;28;20583;-63
2022/05/15 03:46:41;;;;;;;1.13;0.85;;;24.30;47.00;;;;;;5022847;28;20029;-65
2022/05/15 03:49:07;;;;;;;1.05;0.80;;;24.30;47.10;;;;;;5019117;28;20837;-66
2022/05/15 03:51:33;;;;;;;1.33;0.90;;;24.30;47.10;;;;;;5018689;28;20395;-66
2022/05/15 03:53:59;;;;;;;1.05;0.80;;;24.30;47.00;;;;;;5020573;28;20261;-66
2022/05/15 03:59:12;;;;;;;1.23;0.80;;;24.30;47.00;;;;;;5021879;28;20075;-65
2022/05/15 04:01:38;;;;;;;1.50;0.90;;;24.30;47.00;;;;;;5021822;28;20029;-66
2022/05/15 04:04:04;;;;;;;1.38;0.88;;;24.30;47.00;;;;;;5020442;28;20048;-66
2022/05/15 04:06:30;;;;;;;1.70;0.90;;;24.30;47.00;;;;;;5023282;28;20061;-66
2022/05/15 04:08:56;;;;;;;1.02;0.70;;;24.30;47.00;;;;;;5020356;28;20056;-66
2022/05/15 04:11:22;;;;;;;1.55;0.88;;;24.30;47.00;;;;;;5020247;28;20374;-63
2022/05/15 04:13:47;;;;;;;1.48;0.93;;;24.30;47.00;;;;;;5020288;28;20044;-65
2022/05/15 04:16:16;;;;;;;1.02;0.88;;;24.30;47.00;;;;;;5022742;28;20459;-64
2022/05/15 04:18:41;;;;;;;2.57;1.10;;;24.30;47.00;;;;;;5021439;28;20087;-66
2022/05/15 04:21:07;;;;;;;1.25;0.80;;;24.30;47.10;;;;;;5020409;28;20014;-66
2022/05/15 04:23:33;;;;;;;1.42;0.82;;;24.30;47.00;;;;;;5024350;28;20037;-66
2022/05/15 04:25:59;;;;;;;1.40;0.90;;;24.30;47.00;;;;;;5020885;28;20033;-65
2022/05/15 04:28:24;;;;;;;1.00;0.80;;;24.30;47.10;;;;;;5021140;28;20056;-64
2022/05/15 04:30:50;;;;;;;1.50;0.90;;;24.30;47.10;;;;;;5019866;28;20071;-64
2022/05/15 04:33:16;;;;;;;1.20;0.90;;;24.30;47.00;;;;;;5020018;28;20029;-66
2022/05/15 04:35:42;;;;;;;1.65;1.00;;;24.30;47.10;;;;;;5016696;28;20067;-66
2022/05/15 04:38:09;;;;;;;1.20;0.80;;;24.20;47.00;;;;;;5023953;28;20033;-65
2022/05/15 04:40:35;;;;;;;1.40;0.90;;;24.30;47.00;;;;;;5021607;28;20132;-66
2022/05/15 04:43:01;;;;;;;1.23;0.80;;;24.30;47.10;;;;;;5023527;28;20373;-62
2022/05/15 04:45:26;;;;;;;1.67;0.98;;;24.20;47.00;;;;;;5019694;28;20025;-65
2022/05/15 04:47:52;;;;;;;1.23;0.90;;;24.20;47.50;;;;;;5020217;28;20045;-65
2022/05/15 04:50:18;;;;;;;1.52;0.90;;;24.20;47.00;;;;;;5018737;28;20104;-65
2022/05/15 04:52:45;;;;;;;1.25;0.90;;;24.20;47.00;;;;;;5020366;28;20033;-66
2022/05/15 04:55:11;;;;;;;1.70;0.90;;;24.20;47.50;;;;;;5021519;28;20037;-64
2022/05/15 04:57:38;;;;;;;1.15;0.82;;;24.20;47.00;;;;;;5024668;28;20032;-66
2022/05/15 05:00:06;;;;;;;1.35;0.90;;;24.20;47.00;;;;;;5000044;28;20083;-65
2022/05/15 05:02:32;;;;;;;1.40;0.90;;;24.20;47.00;;;;;;5021013;28;20056;-66
2022/05/15 05:04:59;;;;;;;0.77;0.70;;;24.20;47.00;;;;;;5016011;28;20034;-64
2022/05/15 05:07:26;;;;;;;1.10;0.80;;;24.20;47.00;;;;;;5018192;28;20372;-66
2022/05/15 05:09:52;;;;;;;1.17;0.70;;;24.20;47.00;;;;;;5013659;28;20086;-62
2022/05/15 05:12:18;;;;;;;1.40;0.90;;;24.20;47.00;;;;;;5018708;28;20029;-65
2022/05/15 05:14:43;;;;;;;1.75;1.02;;;24.20;47.00;;;;;;5018519;28;20088;-62
2022/05/15 05:17:09;;;;;;;1.15;0.80;;;24.20;47.00;;;;;;5015930;28;20063;-64
2022/05/15 05:19:34;;;;;;;1.38;0.80;;;24.20;47.00;;;;;;5018244;28;20299;-65
2022/05/15 05:22:00;;;;;;;1.42;0.88;;;24.20;47.00;;;;;;5016905;28;20021;-65
2022/05/15 05:24:26;;;;;;;1.05;0.80;;;24.10;47.00;;;;;;5017595;28;20021;-66
2022/05/15 05:26:52;;;;;;;1.77;0.70;;;24.10;47.00;;;;;;5022107;28;20517;-64
2022/05/15 05:29:17;;;;;;;1.67;0.80;;;24.20;47.00;;;;;;5018155;28;20033;-64
2022/05/15 05:31:43;;;;;;;1.00;0.80;;;24.10;47.00;;;;;;5015864;28;20044;-68
2022/05/15 05:34:09;;;;;;;1.38;0.80;;;24.10;47.00;;;;;;5017617;28;20219;-66
2022/05/15 05:36:34;;;;;;;1.80;1.00;;;24.10;47.00;;;;;;5015901;28;20244;-66
2022/05/15 05:39:00;;;;;;;1.00;0.70;;;24.10;47.00;;;;;;5017631;28;20036;-66
2022/05/15 05:41:27;;;;;;;1.27;0.75;;;24.10;47.00;;;;;;5015663;28;20087;-63
2022/05/15 05:43:52;;;;;;;1.13;0.80;;;24.10;47.00;;;;;;5015968;28;20032;-67
2022/05/15 05:46:18;;;;;;;1.10;0.80;;;24.10;47.00;;;;;;5018558;28;20480;-68
2022/05/15 05:48:46;;;;;;;1.27;0.90;;;24.10;47.00;;;;;;5016474;28;20393;-65
2022/05/15 05:51:15;;;;;;;0.98;0.80;;;24.10;47.00;;;;;;5017475;28;20056;-65
2022/05/15 05:53:42;;;;;;;0.93;0.73;;;24.10;47.00;;;;;;5016498;28;20033;-64
2022/05/15 05:56:08;;;;;;;1.23;0.80;;;24.10;47.00;;;;;;5020758;28;20072;-65
2022/05/15 05:58:35;;;;;;;1.02;0.80;;;24.10;47.00;;;;;;5020981;28;20136;-62
2022/05/15 06:01:00;;;;;;;1.30;0.80;;;24.10;47.00;;;;;;5021405;28;20037;-65
2022/05/15 06:06:10;;;;;;;0.95;0.75;;;24.10;47.00;;;;;;5021440;28;20049;-65
2022/05/15 06:08:36;;;;;;;1.17;0.80;;;24.10;46.90;;;;;;5024244;28;20030;-65
2022/05/15 06:11:02;;;;;;;1.13;0.80;;;24.10;46.90;;;;;;5022751;28;20030;-65
2022/05/15 06:13:28;;;;;;;0.90;0.70;;;24.10;46.90;;;;;;5023976;28;20155;-65
2022/05/15 06:15:54;;;;;;;1.10;0.75;;;24.10;47.00;;;;;;5018561;28;20641;-65
2022/05/15 06:18:20;;;;;;;1.40;0.80;;;24.10;47.00;;;;;;5020281;28;20029;-64
2022/05/15 06:20:46;;;;;;;1.30;0.80;;;24.00;46.90;;;;;;5020040;28;20481;-65
2022/05/15 06:23:12;;;;;;;1.13;0.77;;;24.10;47.00;;;;;;5022007;28;20025;-65
2022/05/15 06:25:37;;;;;;;1.13;0.80;;;24.00;46.90;;;;;;5023456;28;20165;-65
2022/05/15 06:28:05;;;;;;;0.93;0.80;;;24.10;47.00;;;;;;5021631;28;20056;-62
2022/05/15 06:30:30;;;;;;;0.77;0.73;;;24.00;46.90;;;;;;5019724;28;20067;-62
2022/05/15 06:32:56;;;;;;;1.65;1.10;;;24.10;46.90;;;;;;5024498;28;20489;-64
2022/05/15 06:35:22;;;;;;;1.33;0.90;;;24.00;46.20;;;;;;5016932;28;20041;-65
2022/05/15 06:37:48;;;;;;;1.58;1.02;;;24.00;46.20;;;;;;5017517;28;20516;-63
2022/05/15 06:40:14;;;;;;;1.80;1.08;;;24.00;45.00;;;;;;5019209;28;20041;-63
2022/05/15 06:42:41;;;;;;;2.72;1.20;;;24.00;44.50;;;;;;5020909;28;20026;-65
2022/05/15 06:45:07;;;;;;;2.08;1.25;;;24.00;44.10;;;;;;5020777;28;20045;-64
2022/05/15 06:47:33;;;;;;;2.22;1.05;;;24.00;43.80;;;;;;5018000;28;20047;-63
2022/05/15 06:50:00;;;;;;;2.83;1.20;;;23.90;43.50;;;;;;5018342;28;20041;-64
2022/05/15 06:52:26;;;;;;;2.63;1.20;;;23.90;43.50;;;;;;5019586;28;20146;-63
2022/05/15 06:54:52;;;;;;;2.63;1.30;;;23.90;43.40;;;;;;5018283;28;20121;-62
2022/05/15 06:57:31;;;;;;;3.28;1.10;;;23.90;43.20;;;;;;5017942;28;20067;-62
2022/05/15 06:59:59;;;;;;;1.85;1.02;;;23.80;43.20;;;;;;5020079;28;20128;-61
2022/05/15 07:02:26;;;;;;;2.47;1.30;;;23.80;43.30;;;;;;5020704;28;20430;-60
2022/05/15 07:04:52;;;;;;;2.20;1.20;;;23.80;43.00;;;;;;5019315;28;20033;-60
2022/05/15 07:07:18;;;;;;;2.30;1.20;;;23.80;42.60;;;;;;5020041;28;20030;-61
2022/05/15 07:09:43;;;;;;;2.05;1.10;;;23.70;42.70;;;;;;5020465;28;20607;-61
2022/05/15 07:12:09;;;;;;;2.28;1.25;;;23.70;42.40;;;;;;5021883;28;20044;-61
2022/05/15 07:14:35;;;;;;;2.28;1.30;;;23.70;42.50;;;;;;5024316;28;20025;-58
2022/05/15 07:17:01;;;;;;;1.73;1.10;;;23.70;42.40;;;;;;5020713;28;20060;-61
2022/05/15 07:19:27;;;;;;;2.67;1.40;;;23.60;42.70;;;;;;5021183;28;20025;-60
2022/05/15 07:21:53;;;;;;;2.80;1.40;;;23.60;42.70;;;;;;5023092;28;20036;-60
2022/05/15 07:24:20;;;;;;;2.35;1.33;;;23.60;42.80;;;;;;5024127;28;20072;-61
2022/05/15 07:26:45;;;;;;;2.78;1.20;;;23.50;43.20;;;;;;5022781;28;20082;-61
2022/05/15 07:29:13;;;;;;;2.25;1.30;;;23.60;43.00;;;;;;5023888;28;20029;-62
2022/05/15 07:31:39;;;;;;;2.30;1.30;;;23.50;43.10;;;;;;5027024;28;20044;-61
2022/05/15 07:34:05;;;;;;;2.40;1.20;;;23.50;43.30;;;;;;5020899;28;20072;-60
2022/05/15 07:36:30;;;;;;;3.00;1.30;;;23.50;43.60;;;;;;5020221;28;20037;-62
2022/05/15 07:38:56;;;;;;;2.85;1.20;;;23.50;43.60;;;;;;5021599;28;20099;-60
2022/05/15 07:41:21;;;;;;;2.10;1.20;;;23.50;43.80;;;;;;5024925;28;20025;-62
2022/05/15 07:43:47;;;;;;;2.95;1.42;;;23.50;43.90;;;;;;5023623;28;20025;-61
2022/05/15 07:46:13;;;;;;;2.97;1.30;;;23.50;43.80;;;;;;5021762;28;20033;-61
2022/05/15 07:48:38;;;;;;;2.33;1.30;;;23.50;43.90;;;;;;5022700;28;20033;-61
2022/05/15 07:51:04;;;;;;;2.85;1.30;;;23.50;43.90;;;;;;5022902;28;20036;-60
2022/05/15 07:53:30;;;;;;;2.75;1.30;;;23.50;44.10;;;;;;5023981;28;20035;-59
2022/05/15 07:55:59;;;;;;;2.97;1.67;;;23.50;44.20;;;;;;5019788;28;20033;-62
2022/05/15 07:58:25;;;;;;;2.10;1.20;;;23.50;44.30;;;;;;5020935;28;20482;-60
2022/05/15 08:00:53;;;;;;;2.10;1.20;;;23.40;44.40;;;;;;5020976;28;20117;-61
2022/05/15 08:03:19;;;;;;;1.58;1.00;;;23.40;44.50;;;;;;5018371;28;20620;-60
2022/05/15 08:08:30;;;;;;;2.30;1.10;;;23.40;44.80;;;;;;5020050;28;20388;-58
2022/05/15 08:10:55;;;;;;;2.78;1.38;;;23.40;44.90;;;;;;5019967;28;20028;-61
2022/05/15 08:13:29;;;;;;;1.83;1.00;;;23.40;44.90;;;;;;5021916;28;20304;-60
2022/05/15 08:15:55;;;;;;;1.67;1.02;;;23.40;44.90;;;;;;5022930;28;20481;-61
2022/05/15 08:23:59;;;;;;;2.13;1.30;;;23.40;45.00;;;;;;5023090;28;20198;-58
2022/05/15 08:26:26;;;;;;;2.55;1.10;;;23.40;45.00;;;;;;5020766;28;20477;-59
2022/05/15 08:28:53;;;;;;;1.45;0.98;;;23.40;45.00;;;;;;5019679;28;20251;-61
2022/05/15 08:31:19;;;;;;;2.30;1.25;;;23.40;45.00;;;;;;5015367;28;20033;-59
2022/05/15 08:33:46;;;;;;;2.13;1.00;;;23.50;45.10;;;;;;5015998;28;20461;-61
2022/05/15 08:36:12;;;;;;;1.65;1.10;;;23.50;45.10;;;;;;5017527;28;20419;-61
2022/05/15 08:38:38;;;;;;;2.45;1.50;;;23.50;45.10;;;;;;5014903;28;20082;-61
2022/05/15 08:41:17;;;;;;;2.28;1.20;;;23.50;45.10;;;;;;5013526;28;20468;-61
2022/05/15 08:43:54;;;;;;;2.53;1.23;;;23.50;45.10;;;;;;5018522;28;20076;-61
2022/05/15 08:46:49;;;;;;;2.20;1.02;;;23.50;45.10;;;;;;5017935;28;20061;-59
2022/05/15 08:49:27;;;;;;;1.77;1.00;;;23.50;45.10;;;;;;5015949;28;20456;-60
2022/05/15 08:52:08;;;;;;;1.70;1.00;;;23.60;45.10;;;;;;5016420;28;20049;-58
2022/05/15 08:55:14;;;;;;;1.50;0.90;;;23.60;45.10;;;;;;5016262;28;20041;-60
2022/05/15 08:57:57;;;;;;;1.40;1.20;;;23.60;45.10;;;;;;5006167;28;20037;-60
2022/05/15 09:00:47;;;;;;;1.98;1.10;;;23.60;45.10;;;;;;5017476;28;20048;-61
2022/05/15 09:03:17;;;;;;;2.20;1.10;;;23.60;45.20;;;;;;5014872;28;20032;-61
2022/05/15 09:06:09;;;;;;;1.58;0.90;;;23.60;45.20;;;;;;5013834;28;20112;-59
2022/05/15 09:09:12;;;;;;;1.83;1.00;;;23.60;45.20;;;;;;5013318;28;20033;-61
2022/05/15 09:12:00;;;;;;;1.27;0.85;;;23.60;45.20;;;;;;5014445;28;20100;-59
2022/05/15 09:14:41;;;;;;;1.20;1.00;;;23.60;45.20;;;;;;5014618;28;20373;-61
2022/05/15 09:17:16;;;;;;;1.60;0.90;;;23.60;45.30;;;;;;5012929;28;20037;-61
2022/05/15 09:19:42;;;;;;;1.42;1.00;;;23.60;45.20;;;;;;5010627;28;20044;-61
2022/05/15 09:22:11;;;;;;;1.63;1.00;;;23.60;45.30;;;;;;5013035;28;20059;-61
2022/05/15 09:24:51;;;;;;;2.00;1.00;;;23.60;45.30;;;;;;5013089;28;20047;-61
2022/05/15 09:27:19;;;;;;;1.88;0.98;;;23.60;45.30;;;;;;5014474;28;20371;-59
2022/05/15 09:29:57;;;;;;;1.83;1.13;;;23.60;45.30;;;;;;5014530;28;20029;-62
2022/05/15 09:32:39;;;;;;;1.70;0.90;;;23.60;45.30;;;;;;5010994;28;20033;-61
2022/05/15 09:35:12;;;;;;;1.40;0.90;;;23.60;45.30;;;;;;5009227;28;20557;-61
2022/05/15 09:40:40;;;;;;;1.42;0.82;;;23.60;45.40;;;;;;5014467;28;20135;-61
2022/05/15 09:43:32;;;;;;;1.83;0.85;;;23.60;45.40;;;;;;5013014;28;20029;-60
2022/05/15 09:46:11;;;;;;;1.98;1.08;;;23.70;45.50;;;;;;5013732;28;20108;-61
2022/05/15 09:48:41;;;;;;;1.20;0.82;;;23.70;45.50;;;;;;5012974;28;20107;-59
2022/05/15 09:51:12;;;;;;;1.88;0.90;;;23.70;45.50;;;;;;5014276;28;20043;-61
2022/05/15 09:53:46;;;;;;;1.33;0.73;;;23.70;45.60;;;;;;5013891;28;20022;-59
2022/05/15 09:56:25;;;;;;;1.48;0.90;;;23.70;45.70;;;;;;5012250;28;20029;-61
2022/05/15 09:58:53;;;;;;;;;;;23.70;45.60;;;;;;5015567;28;20253;-60
2022/05/15 10:01:22;;;;;;;1.63;0.90;;;23.70;45.70;;;;;;5011657;28;19923;-59
2022/05/15 10:03:52;;;;;;;;;;;23.70;45.80;;;;;;5015649;28;20052;-60
2022/05/15 10:06:20;;;;;;;1.88;0.90;;;23.70;45.80;;;;;;5015712;28;19913;-61
2022/05/15 10:09:03;;;;;;;0.95;0.85;;;23.70;45.80;;;;;;5015161;28;20034;-59
2022/05/15 10:11:28;;;;;;;1.05;0.80;;;23.70;45.80;;;;;;5016675;28;20140;-61
2022/05/15 10:13:56;;;;;;;0.80;0.80;;;23.70;45.90;;;;;;5016459;28;20052;-61
2022/05/15 10:16:28;;;;;;;1.40;0.88;;;23.70;45.90;;;;;;5014246;28;20442;-60
2022/05/15 10:19:01;;;;;;;1.80;0.80;;;23.70;45.90;;;;;;5014490;28;20029;-60
2022/05/15 10:21:45;;;;;;;2.67;1.00;;;23.70;46.00;;;;;;5015971;28;20390;-61
2022/05/15 10:24:23;;;;;;;0.95;0.80;;;23.70;46.00;;;;;;5016110;28;20119;-60
2022/05/15 10:27:10;;;;;;;1.38;0.90;;;23.70;46.00;;;;;;5011940;28;20033;-61
2022/05/15 10:30:08;;;;;;;2.65;0.95;;;23.80;46.00;;;;;;5016183;28;20021;-62
2022/05/15 10:32:49;;;;;;;2.50;0.80;;;23.80;46.00;;;;;;5019115;28;20064;-60
2022/05/15 10:35:28;;;;;;;1.80;0.90;;;23.70;46.00;;;;;;5018747;28;20035;-59
2022/05/15 10:38:17;;;;;;;1.63;0.97;;;23.80;46.00;;;;;;5016720;28;20398;-60
2022/05/15 10:40:53;;;;;;;1.58;0.85;;;23.80;46.00;;;;;;5015493;28;20105;-60
2022/05/15 10:43:40;;;;;;;1.13;0.90;;;23.80;46.00;;;;;;5020159;28;20048;-61
2022/05/15 10:46:22;;;;;;;1.30;0.90;;;23.80;46.00;;;;;;5017717;28;20126;-61
2022/05/15 10:49:06;;;;;;;1.63;0.90;;;23.70;46.50;;;;;;5016507;28;20136;-58
2022/05/15 10:51:50;;;;;;;1.63;0.88;;;23.80;46.00;;;;;;5017497;28;20036;-60
2022/05/15 10:57:24;;;;;;;1.60;1.20;;;23.80;46.00;;;;;;5021141;28;20068;-61
2022/05/15 11:00:02;;;;;;;1.65;0.80;;;23.70;46.00;;;;;;5015595;28;20171;-59
2022/05/15 11:02:45;;;;;;;1.20;0.93;;;23.70;46.00;;;;;;5016125;28;20083;-61
2022/05/15 11:05:53;;;;;;;1.08;0.73;;;23.70;46.10;;;;;;5016384;28;20137;-61
2022/05/15 11:08:37;;;;;;;1.20;0.90;;;23.80;46.10;;;;;;4992943;28;20065;-60
2022/05/15 11:11:13;;;;;;;1.10;0.80;;;23.80;46.10;;;;;;5019053;28;20072;-60
2022/05/15 11:14:02;;;;;;;1.42;0.80;;;23.80;46.10;;;;;;5019067;28;20508;-61
2022/05/15 11:16:27;;;;;;;1.10;0.90;;;23.80;46.10;;;;;;5020644;28;20053;-60
2022/05/15 11:19:09;;;;;;;2.22;1.13;;;23.80;46.10;;;;;;5015116;28;20021;-61
2022/05/15 11:21:37;;;;;;;1.95;0.90;;;23.80;46.10;;;;;;5020759;28;20061;-59
2022/05/15 11:24:11;;;;;;;1.10;0.80;;;23.80;46.10;;;;;;5019278;28;20060;-59
2022/05/15 11:26:44;;;;;;;0.98;0.70;;;23.80;46.10;;;;;;5017230;28;20387;-61
2022/05/15 11:29:12;;;;;;;0.95;0.80;;;23.80;46.20;;;;;;5018727;28;20033;-61
2022/05/15 11:31:46;;;;;;;2.20;0.80;;;23.80;46.10;;;;;;5019228;28;20107;-62
2022/05/15 11:34:11;;;;;;;1.55;0.90;;;23.80;46.10;;;;;;5020251;28;20087;-62
2022/05/15 11:36:44;;;;;;;0.82;0.70;;;23.80;46.20;;;;;;5023162;28;20369;-59
2022/05/15 11:39:15;;;;;;;1.20;0.75;;;23.90;46.20;;;;;;5019728;28;20330;-61
2022/05/15 11:41:44;;;;;;;1.50;0.90;;;23.80;46.10;;;;;;5019300;28;20406;-61
2022/05/15 11:44:20;;;;;;;0.73;0.63;;;23.80;46.10;;;;;;5022107;28;20889;-62
2022/05/15 11:46:49;;;;;;;1.55;0.90;;;23.90;46.20;;;;;;5017327;28;20322;-61
2022/05/15 11:49:22;;;;;;;1.35;0.90;;;23.80;46.10;;;;;;5016260;28;20047;-62
2022/05/15 11:52:15;;;;;;;1.00;0.70;;;23.80;46.10;;;;;;5020225;28;20044;-62
2022/05/15 11:54:45;;;;;;;1.10;0.80;;;23.80;46.10;;;;;;5020343;28;20029;-61
2022/05/15 11:57:13;;;;;;;1.05;0.80;;;23.90;46.20;;;;;;5020885;28;20064;-60
2022/05/15 11:59:54;;;;;;;0.95;0.73;;;23.90;46.20;;;;;;5020634;28;20057;-61
2022/05/15 12:02:35;;;;;;;0.90;0.60;;;23.90;46.20;;;;;;5017207;28;20521;-61
2022/05/15 12:05:20;;;;;;;0.80;0.60;;;23.90;46.20;;;;;;5017834;28;20288;-60
2022/05/15 12:07:51;;;;;;;1.17;0.75;;;23.90;46.20;;;;;;5019446;28;20036;-60
2022/05/15 12:10:35;;;;;;;1.10;0.80;;;23.90;46.20;;;;;;5017249;28;20087;-61
2022/05/15 12:13:11;;;;;;;1.20;0.80;;;23.90;46.10;;;;;;5019656;28;20047;-61
2022/05/15 12:15:45;;;;;;;1.33;0.70;;;23.90;46.10;;;;;;5011409;28;20036;-61
2022/05/15 12:18:27;;;;;;;1.00;0.80;;;23.90;46.10;;;;;;5018319;28;20192;-60
2022/05/15 12:20:55;;;;;;;1.90;0.90;;;23.90;46.10;;;;;;5019505;28;20083;-61
2022/05/15 12:23:31;;;;;;;1.33;0.85;;;23.90;46.10;;;;;;5019703;28;20082;-61
2022/05/15 12:25:59;;;;;;;1.33;0.95;;;23.90;46.10;;;;;;5017543;28;20545;-61
2022/05/15 12:28:52;;;;;;;1.13;0.82;;;23.90;46.10;;;;;;5018977;28;20493;-60
2022/05/15 12:31:27;;;;;;;1.15;0.80;;;23.90;46.10;;;;;;5017577;28;20095;-61
2022/05/15 12:34:05;;;;;;;1.20;0.80;;;23.90;46.10;;;;;;5023364;28;20099;-62
2022/05/15 12:36:40;;;;;;;1.27;0.80;;;23.90;46.10;;;;;;5016726;28;20120;-61
2022/05/15 12:39:07;;;;;;;1.25;0.80;;;23.90;46.00;;;;;;5018698;28;20481;-62
2022/05/15 12:41:36;;;;;;;1.92;0.88;;;23.90;46.00;;;;;;5019401;28;20573;-62
2022/05/15 12:44:06;;;;;;;0.90;0.70;;;23.90;46.00;;;;;;5018694;28;20049;-62
2022/05/15 12:46:31;;;;;;;2.17;0.77;;;23.90;46.00;;;;;;5018715;28;20041;-62
2022/05/15 12:48:58;;;;;;;1.70;0.80;;;23.90;46.00;;;;;;5015370;28;20109;-61
2022/05/15 12:51:38;;;;;;;0.93;0.75;;;23.90;46.10;;;;;;5015492;28;20036;-62
2022/05/15 12:54:24;;;;;;;1.48;0.80;;;23.90;46.00;;;;;;5017485;28;20041;-61
2022/05/15 12:57:02;;;;;;;0.90;0.68;;;23.90;46.00;;;;;;5016642;28;20330;-61
2022/05/15 12:59:29;;;;;;;1.35;0.80;;;23.90;46.00;;;;;;5018228;28;20029;-59
2022/05/15 13:01:55;;;;;;;1.25;0.88;;;24.00;46.00;;;;;;5017957;28;20038;-60
2022/05/15 13:04:26;;;;;;;2.10;0.70;;;24.00;46.00;;;;;;5014269;28;20051;-62
2022/05/15 13:06:55;;;;;;;1.15;0.77;;;24.00;46.00;;;;;;5015427;28;20276;-61
2022/05/15 13:09:30;;;;;;;0.70;0.65;;;24.00;46.00;;;;;;5015712;28;20029;-62
2022/05/15 13:12:02;;;;;;;0.93;0.80;;;24.00;46.00;;;;;;5019130;28;20028;-61
2022/05/15 13:14:35;;;;;;;0.95;0.70;;;24.00;46.00;;;;;;5017693;28;20045;-61
2022/05/15 13:17:04;;;;;;;0.80;0.75;;;24.00;46.00;;;;;;5013989;28;20028;-62
2022/05/15 13:19:34;;;;;;;1.38;0.80;;;24.00;46.00;;;;;;5011402;28;20167;-59
2022/05/15 13:22:01;;;;;;;1.50;1.00;;;24.00;46.00;;;;;;5013872;28;20359;-62
2022/05/15 13:24:30;;;;;;;1.48;0.80;;;24.00;46.00;;;;;;5013520;28;20034;-60
2022/05/15 13:26:58;;;;;;;0.70;0.70;;;24.00;46.00;;;;;;5015369;28;20033;-60